createdAt,value
2018-07-14T00:00:31.412Z,4.97
2018-07-14T00:02:59.770Z,4.67
2018-07-14T00:05:28.067Z,5.00
2018-07-14T00:07:56.354Z,4.20
2018-07-14T00:10:24.632Z,4.57
2018-07-14T00:12:53.125Z,5.07
2018-07-14T00:15:21.474Z,4.33
2018-07-14T00:17:49.762Z,4.47
2018-07-14T00:20:18.054Z,4.37
2018-07-14T00:22:46.323Z,4.50
2018-07-14T00:25:14.596Z,5.03
2018-07-14T00:27:42.892Z,4.80
2018-07-14T00:30:11.233Z,4.53
2018-07-14T00:32:39.518Z,4.43
2018-07-14T00:35:07.809Z,5.20
2018-07-14T00:37:36.086Z,4.30
2018-07-14T00:40:04.357Z,4.73
2018-07-14T00:42:32.636Z,4.77
2018-07-14T00:45:00.910Z,5.07
2018-07-14T00:47:29.181Z,4.63
2018-07-14T00:49:57.437Z,5.17
2018-07-14T00:52:25.698Z,5.33
2018-07-14T00:54:54.016Z,4.60
2018-07-14T00:57:22.295Z,4.73
2018-07-14T00:59:50.577Z,4.90
2018-07-14T01:02:18.880Z,4.23
2018-07-14T01:04:47.156Z,4.93
2018-07-14T01:07:15.423Z,5.23
2018-07-14T01:09:43.710Z,5.20
2018-07-14T01:12:11.959Z,4.53
2018-07-14T01:14:40.256Z,4.73
2018-07-14T01:17:08.557Z,4.40
2018-07-14T01:19:37.590Z,4.97
2018-07-14T01:22:06.052Z,5.10
2018-07-14T01:24:34.317Z,5.50
2018-07-14T01:27:02.629Z,5.30
2018-07-14T01:29:30.932Z,4.60
2018-07-14T01:31:59.216Z,5.73
2018-07-14T01:34:27.470Z,4.50
2018-07-14T01:36:55.738Z,5.63
2018-07-14T01:39:24.020Z,4.90
2018-07-14T01:41:52.351Z,5.37
2018-07-14T01:44:20.643Z,6.07
2018-07-14T01:46:48.949Z,5.70
2018-07-14T01:49:17.311Z,5.43
2018-07-14T01:51:46.567Z,5.83
2018-07-14T01:54:14.815Z,5.90
2018-07-14T01:56:43.099Z,5.37
2018-07-14T01:59:11.360Z,6.80
2018-07-14T02:01:40.331Z,5.47
2018-07-14T02:04:08.774Z,6.00
2018-07-14T02:06:37.034Z,5.53
2018-07-14T02:09:05.797Z,4.27
2018-07-14T02:11:34.104Z,5.27
2018-07-14T02:14:02.390Z,6.40
2018-07-14T02:16:30.640Z,6.20
2018-07-14T02:18:58.917Z,5.90
2018-07-14T02:21:27.187Z,5.80
2018-07-14T02:23:55.440Z,6.43
2018-07-14T02:26:23.711Z,6.10
2018-07-14T02:28:51.977Z,6.03
2018-07-14T02:31:20.265Z,5.57
2018-07-14T02:33:48.536Z,6.57
2018-07-14T02:36:16.812Z,5.40
2018-07-14T02:38:45.137Z,5.83
2018-07-14T02:41:13.375Z,6.33
2018-07-14T02:43:41.652Z,5.57
2018-07-14T02:46:09.990Z,6.07
2018-07-14T02:48:38.267Z,5.00
2018-07-14T02:51:06.619Z,5.37
2018-07-14T02:53:34.893Z,5.37
2018-07-14T02:56:03.156Z,5.27
2018-07-14T02:58:31.828Z,5.63
2018-07-14T03:01:00.148Z,5.40
2018-07-14T03:03:29.005Z,5.40
2018-07-14T03:05:57.261Z,5.73
2018-07-14T03:08:25.552Z,5.50
2018-07-14T03:10:53.879Z,6.27
2018-07-14T03:13:22.142Z,5.80
2018-07-14T03:15:50.414Z,5.87
2018-07-14T03:18:18.741Z,5.63
2018-07-14T03:20:47.410Z,6.27
2018-07-14T03:23:15.679Z,5.67
2018-07-14T03:25:43.953Z,4.97
2018-07-14T03:28:12.214Z,5.73
2018-07-14T03:30:40.457Z,5.17
2018-07-14T03:33:08.814Z,5.03
2018-07-14T03:35:37.069Z,5.97
2018-07-14T03:38:05.445Z,4.70
2018-07-14T03:40:33.721Z,5.20
2018-07-14T03:43:01.978Z,5.30
2018-07-14T03:45:30.228Z,5.20
2018-07-14T03:47:58.494Z,5.23
2018-07-14T03:50:26.780Z,5.80
2018-07-14T03:52:55.153Z,5.40
2018-07-14T03:55:23.407Z,6.20
2018-07-14T03:57:52.388Z,5.70
2018-07-14T04:00:20.637Z,6.30
2018-07-14T04:02:48.924Z,6.20
2018-07-14T04:05:17.226Z,6.00
2018-07-14T04:07:45.532Z,5.30
2018-07-14T04:10:13.869Z,5.97
2018-07-14T04:12:42.160Z,6.50
2018-07-14T04:15:10.481Z,6.10
2018-07-14T04:17:38.790Z,6.60
2018-07-14T04:20:07.190Z,5.97
2018-07-14T04:22:35.466Z,6.97
2018-07-14T04:25:03.786Z,6.47
2018-07-14T04:27:32.184Z,7.30
2018-07-14T04:30:00.473Z,5.90
2018-07-14T04:32:28.741Z,6.23
2018-07-14T04:34:57.050Z,6.87
2018-07-14T04:37:25.330Z,6.73
2018-07-14T04:39:53.651Z,7.83
2018-07-14T04:42:22.022Z,8.13
2018-07-14T04:44:50.286Z,6.93
2018-07-14T04:47:18.603Z,6.33
2018-07-14T04:49:46.952Z,7.33
2018-07-14T04:52:15.244Z,6.23
2018-07-14T04:54:43.574Z,6.50
2018-07-14T04:57:11.844Z,5.63
2018-07-14T04:59:40.149Z,5.53
2018-07-14T05:02:08.430Z,6.70
2018-07-14T05:04:36.732Z,6.00
2018-07-14T05:07:05.151Z,5.87
2018-07-14T05:09:33.478Z,5.63
2018-07-14T05:12:01.978Z,6.67
2018-07-14T05:14:30.322Z,7.47
2018-07-14T05:16:59.307Z,6.50
2018-07-14T05:19:27.640Z,6.43
2018-07-14T05:21:55.918Z,6.33
2018-07-14T05:24:24.209Z,5.53
2018-07-14T05:26:52.514Z,6.03
2018-07-14T05:29:20.815Z,5.73
2018-07-14T05:31:49.110Z,6.20
2018-07-14T05:34:17.383Z,6.27
2018-07-14T05:36:45.724Z,5.53
2018-07-14T05:39:14.020Z,5.77
2018-07-14T05:41:42.344Z,6.27
2018-07-14T05:44:10.705Z,5.07
2018-07-14T05:46:38.910Z,5.47
2018-07-14T05:49:07.371Z,5.63
2018-07-14T05:51:35.635Z,5.70
2018-07-14T05:54:04.035Z,5.83
2018-07-14T05:56:32.371Z,6.10
2018-07-14T05:59:00.786Z,6.10
2018-07-14T06:01:29.037Z,5.23
2018-07-14T06:03:57.290Z,5.17
2018-07-14T06:06:25.624Z,5.73
2018-07-14T06:08:53.956Z,6.10
2018-07-14T06:11:21.243Z,5.33
2018-07-14T06:13:50.074Z,6.13
2018-07-14T06:16:18.649Z,6.17
2018-07-14T06:18:46.974Z,5.27
2018-07-14T06:21:15.337Z,6.37
2018-07-14T06:23:43.648Z,4.90
2018-07-14T06:26:11.979Z,5.47
2018-07-14T06:28:40.275Z,5.53
2018-07-14T06:31:08.567Z,5.20
2018-07-14T06:33:36.878Z,5.80
2018-07-14T06:36:06.661Z,5.43
2018-07-14T06:38:35.011Z,6.07
2018-07-14T06:41:04.305Z,5.90
2018-07-14T06:43:32.547Z,5.20
2018-07-14T06:46:01.203Z,5.17
2018-07-14T06:48:29.540Z,5.20
2018-07-14T06:51:04.609Z,5.30
2018-07-14T06:53:32.917Z,4.93
2018-07-14T06:56:01.189Z,4.77
2018-07-14T06:58:29.457Z,5.50
2018-07-14T07:00:57.713Z,4.80
2018-07-14T07:03:26.154Z,4.70
2018-07-14T07:05:54.375Z,6.20
2018-07-14T07:08:22.699Z,5.30
2018-07-14T07:10:51.176Z,5.30
2018-07-14T07:13:29.568Z,5.33
2018-07-14T07:15:57.937Z,4.80
2018-07-14T07:18:26.217Z,4.73
2018-07-14T07:20:54.639Z,4.50
2018-07-14T07:23:22.912Z,4.53
2018-07-14T07:25:51.246Z,5.40
2018-07-14T07:28:19.502Z,5.00
2018-07-14T07:30:47.782Z,4.60
2018-07-14T07:33:16.060Z,4.90
2018-07-14T07:35:44.316Z,4.53
2018-07-14T07:38:12.572Z,4.73
2018-07-14T07:40:41.074Z,5.13
2018-07-14T07:43:09.676Z,5.00
2018-07-14T07:45:37.953Z,5.30
2018-07-14T07:48:06.331Z,4.83
2018-07-14T07:50:34.653Z,4.80
2018-07-14T07:53:02.912Z,5.17
2018-07-14T07:55:31.269Z,5.50
2018-07-14T07:57:59.568Z,4.90
2018-07-14T08:00:27.872Z,4.70
2018-07-14T08:02:56.201Z,4.20
2018-07-14T08:05:24.505Z,4.20
2018-07-14T08:07:53.617Z,4.40
2018-07-14T08:10:33.421Z,4.50
2018-07-14T08:13:02.722Z,4.90
2018-07-14T08:15:31.013Z,4.80
2018-07-14T08:17:59.276Z,4.23
2018-07-14T08:20:28.676Z,3.80
2018-07-14T08:22:57.934Z,3.97
2018-07-14T08:25:30.082Z,4.20
2018-07-14T08:27:58.453Z,5.17
2018-07-14T08:30:27.429Z,4.20
2018-07-14T08:32:55.708Z,4.23
2018-07-14T08:35:24.045Z,4.00
2018-07-14T08:37:52.331Z,3.97
2018-07-14T08:40:24.798Z,3.67
2018-07-14T08:42:54.139Z,4.00
2018-07-14T08:45:22.575Z,4.33
2018-07-14T08:47:50.965Z,3.40
2018-07-14T08:50:19.241Z,4.00
2018-07-14T08:52:47.574Z,4.20
2018-07-14T08:55:15.911Z,3.90
2018-07-14T08:57:45.233Z,3.90
2018-07-14T09:00:13.959Z,3.93
2018-07-14T09:02:42.242Z,3.40
2018-07-14T09:05:11.108Z,3.37
2018-07-14T09:07:39.487Z,3.93
2018-07-14T09:10:07.831Z,3.30
2018-07-14T09:12:36.165Z,3.80
2018-07-14T09:15:05.361Z,3.40
2018-07-14T09:17:33.610Z,3.70
2018-07-14T09:20:01.786Z,3.67
2018-07-14T09:22:29.982Z,3.17
2018-07-14T09:27:39.076Z,2.90
2018-07-14T09:30:07.363Z,2.57
2018-07-14T09:32:35.747Z,2.90
2018-07-14T09:35:04.775Z,3.60
2018-07-14T09:37:33.018Z,3.03
2018-07-14T09:40:15.642Z,3.37
2018-07-14T09:42:44.046Z,3.03
2018-07-14T09:45:12.316Z,2.97
2018-07-14T09:47:40.631Z,2.90
2018-07-14T09:50:08.878Z,2.70
2018-07-14T09:52:37.249Z,2.83
2018-07-14T09:55:05.648Z,2.67
2018-07-14T09:57:33.968Z,3.00
2018-07-14T10:00:04.020Z,2.07
2018-07-14T10:02:32.341Z,2.20
2018-07-14T10:05:00.658Z,2.13
2018-07-14T10:07:30.081Z,2.50
2018-07-14T10:10:09.922Z,2.30
2018-07-14T10:12:38.276Z,2.50
2018-07-14T10:15:06.806Z,2.23
2018-07-14T10:17:35.210Z,2.70
2018-07-14T10:20:03.525Z,2.10
2018-07-14T10:22:31.789Z,2.20
2018-07-14T10:25:00.079Z,2.80
2018-07-14T10:27:28.399Z,2.43
2018-07-14T10:29:56.694Z,3.20
2018-07-14T10:32:25.648Z,2.70
2018-07-14T10:35:02.643Z,2.90
2018-07-14T10:37:30.920Z,2.97
2018-07-14T10:39:59.264Z,2.40
2018-07-14T10:42:28.105Z,3.20
2018-07-14T10:44:56.578Z,3.17
2018-07-14T10:47:25.493Z,2.17
2018-07-14T10:50:00.503Z,2.87
2018-07-14T10:52:28.775Z,2.87
2018-07-14T10:54:57.053Z,2.53
2018-07-14T10:57:25.374Z,2.70
2018-07-14T10:59:53.686Z,3.10
2018-07-14T11:02:21.977Z,2.60
2018-07-14T11:04:50.270Z,3.20
2018-07-14T11:07:18.564Z,3.10
2018-07-14T11:09:47.229Z,3.07
2018-07-14T11:12:15.640Z,3.47
2018-07-14T11:14:44.502Z,2.83
2018-07-14T11:17:12.813Z,2.83
2018-07-14T11:19:41.118Z,2.60
2018-07-14T11:22:09.442Z,2.60
2018-07-14T11:24:37.707Z,3.07
2018-07-14T11:27:06.047Z,2.83
2018-07-14T11:29:34.370Z,3.10
2018-07-14T11:32:02.659Z,3.03
2018-07-14T11:34:32.179Z,2.63
2018-07-14T11:37:00.446Z,2.83
2018-07-14T11:39:29.555Z,2.90
2018-07-14T11:41:57.922Z,3.10
2018-07-14T11:44:27.695Z,3.10
2018-07-14T11:46:55.973Z,3.07
2018-07-14T11:49:24.295Z,3.20
2018-07-14T11:51:52.572Z,2.60
2018-07-14T11:54:21.143Z,2.70
2018-07-14T11:56:50.436Z,3.23
2018-07-14T11:59:18.692Z,2.87
2018-07-14T12:01:47.636Z,2.77
2018-07-14T12:04:16.422Z,2.50
2018-07-14T12:06:44.877Z,2.63
2018-07-14T12:09:16.704Z,3.30
2018-07-14T12:11:45.021Z,2.87
2018-07-14T12:14:15.052Z,2.90
2018-07-14T12:16:43.324Z,3.20
2018-07-14T12:19:11.578Z,2.70
2018-07-14T12:21:39.833Z,3.00
2018-07-14T12:24:10.847Z,3.10
2018-07-14T12:26:40.765Z,2.77
2018-07-14T12:29:08.947Z,3.00
2018-07-14T12:31:37.210Z,3.30
2018-07-14T12:34:05.773Z,2.73
2018-07-14T12:36:34.029Z,2.53
2018-07-14T12:39:02.364Z,2.77
2018-07-14T12:41:30.761Z,3.10
2018-07-14T12:43:59.035Z,2.83
2018-07-14T12:46:28.170Z,2.70
2018-07-14T12:48:56.557Z,3.00
2018-07-14T12:51:24.929Z,2.90
2018-07-14T12:53:53.234Z,2.80
2018-07-14T12:56:21.550Z,3.20
2018-07-14T12:58:50.410Z,3.10
2018-07-14T13:01:18.744Z,2.97
2018-07-14T13:03:47.095Z,3.30
2018-07-14T13:06:15.520Z,2.97
2018-07-14T13:08:43.797Z,3.20
2018-07-14T13:11:12.173Z,3.50
2018-07-14T13:13:40.922Z,3.00
2018-07-14T13:16:09.203Z,2.30
2018-07-14T13:18:37.496Z,3.23
2018-07-14T13:21:05.795Z,2.80
2018-07-14T13:23:34.090Z,2.93
2018-07-14T13:26:02.360Z,3.23
2018-07-14T13:28:30.729Z,2.77
2018-07-14T13:30:58.984Z,3.00
2018-07-14T13:33:27.322Z,2.83
2018-07-14T13:35:56.654Z,2.90
2018-07-14T13:38:26.287Z,3.50
2018-07-14T13:40:54.639Z,2.90
2018-07-14T13:43:23.716Z,3.60
2018-07-14T13:45:52.006Z,3.10
2018-07-14T13:48:20.283Z,3.23
2018-07-14T13:50:48.595Z,3.40
2018-07-14T13:53:16.919Z,3.60
2018-07-14T13:55:45.163Z,3.47
2018-07-14T13:58:13.448Z,3.60
2018-07-14T14:00:41.747Z,3.17
2018-07-14T14:03:10.018Z,3.40
2018-07-14T14:05:38.269Z,3.10
2018-07-14T14:08:06.574Z,3.60
2018-07-14T14:10:34.867Z,2.87
2018-07-14T14:13:03.182Z,3.03
2018-07-14T14:15:32.321Z,3.00
2018-07-14T14:18:00.602Z,3.00
2018-07-14T14:20:28.893Z,2.90
2018-07-14T14:22:57.210Z,3.20
2018-07-14T14:25:25.504Z,2.77
2018-07-14T14:27:53.743Z,3.07
2018-07-14T14:30:22.012Z,2.97
2018-07-14T14:32:50.314Z,3.20
2018-07-14T14:35:18.557Z,2.80
2018-07-14T14:37:47.504Z,2.50
2018-07-14T14:40:15.768Z,3.40
2018-07-14T14:42:44.470Z,3.10
2018-07-14T14:45:12.769Z,3.03
2018-07-14T14:47:41.056Z,2.97
2018-07-14T14:50:09.313Z,4.10
2018-07-14T14:52:37.600Z,3.47
2018-07-14T14:55:05.965Z,2.97
2018-07-14T14:57:40.245Z,2.80
2018-07-14T15:00:10.629Z,3.17
2018-07-14T15:02:41.000Z,2.97
2018-07-14T15:05:12.564Z,3.20
2018-07-14T15:07:41.211Z,3.60
2018-07-14T15:10:09.753Z,3.00
2018-07-14T15:12:38.110Z,2.80
2018-07-14T15:15:41.277Z,3.23
2018-07-14T15:18:12.510Z,3.20
2018-07-14T15:20:40.902Z,3.50
2018-07-14T15:23:10.017Z,3.00
2018-07-14T15:25:39.339Z,3.67
2018-07-14T15:28:07.614Z,2.67
2018-07-14T15:30:36.594Z,3.70
2018-07-14T15:33:05.136Z,2.97
2018-07-14T15:35:35.354Z,3.10
2018-07-14T15:38:03.675Z,2.57
2018-07-14T15:40:33.280Z,2.93
2018-07-14T15:43:01.625Z,3.67
2018-07-14T15:45:29.886Z,2.83
2018-07-14T15:47:58.201Z,2.40
2018-07-14T15:50:27.077Z,2.93
2018-07-14T15:52:55.346Z,3.30
2018-07-14T15:55:24.759Z,3.40
2018-07-14T15:57:56.553Z,3.50
2018-07-14T16:00:24.842Z,3.43
2018-07-14T16:02:55.065Z,2.93
2018-07-14T16:05:23.386Z,3.17
2018-07-14T16:07:53.524Z,3.50
2018-07-14T16:10:21.814Z,3.73
2018-07-14T16:12:50.117Z,2.87
2018-07-14T16:15:18.428Z,2.73
2018-07-14T16:17:46.701Z,2.83
2018-07-14T16:20:14.998Z,3.00
2018-07-14T16:22:43.385Z,3.87
2018-07-14T16:25:11.693Z,4.77
2018-07-14T16:27:39.982Z,2.73
2018-07-14T16:30:08.320Z,4.17
2018-07-14T16:32:36.602Z,2.63
2018-07-14T16:35:04.879Z,3.03
2018-07-14T16:37:33.159Z,2.90
2018-07-14T16:40:01.441Z,2.93
2018-07-14T16:42:29.703Z,3.50
2018-07-14T16:44:58.742Z,3.50
2018-07-14T16:47:27.017Z,3.30
2018-07-14T16:49:56.146Z,3.23
2018-07-14T16:52:24.534Z,3.10
2018-07-14T16:54:52.808Z,3.03
2018-07-14T16:57:21.093Z,3.17
2018-07-14T16:59:49.410Z,3.10
2018-07-14T17:02:17.674Z,3.07
2018-07-14T17:04:46.196Z,2.83
2018-07-14T17:07:15.225Z,2.90
2018-07-14T17:09:43.513Z,2.70
2018-07-14T17:12:11.829Z,2.83
2018-07-14T17:16:23.647Z,3.43
2018-07-14T17:18:52.137Z,2.50
2018-07-14T17:21:20.746Z,2.77
2018-07-14T17:23:55.937Z,3.03
2018-07-14T17:26:24.225Z,2.90
2018-07-14T17:28:52.506Z,2.90
2018-07-14T17:31:20.803Z,3.10
2018-07-14T17:33:49.216Z,2.57
2018-07-14T17:36:17.769Z,2.47
2018-07-14T17:38:49.194Z,3.10
2018-07-14T17:41:17.577Z,3.47
2018-07-14T17:43:45.961Z,3.57
2018-07-14T17:46:20.937Z,3.40
2018-07-14T17:48:49.411Z,2.77
2018-07-14T17:51:17.655Z,2.87
2018-07-14T17:53:46.026Z,3.10
2018-07-14T17:56:14.333Z,3.73
2018-07-14T17:58:42.636Z,4.10
2018-07-14T18:01:10.969Z,3.57
2018-07-14T18:03:39.264Z,4.10
2018-07-14T18:06:08.379Z,3.27
2018-07-14T18:08:36.622Z,3.67
2018-07-14T18:11:05.193Z,3.43
2018-07-14T18:13:33.518Z,3.80
2018-07-14T18:16:02.247Z,4.10
2018-07-14T18:18:30.585Z,4.00
2018-07-14T18:21:04.895Z,4.07
2018-07-14T18:23:33.166Z,4.20
2018-07-14T18:26:01.520Z,4.17
2018-07-14T18:28:30.536Z,3.37
2018-07-14T18:30:58.821Z,3.17
2018-07-14T18:33:27.112Z,3.63
2018-07-14T18:35:55.379Z,3.30
2018-07-14T18:38:23.706Z,3.63
2018-07-14T18:40:52.006Z,3.43
2018-07-14T18:43:20.262Z,4.30
2018-07-14T18:45:48.530Z,3.40
2018-07-14T18:48:16.781Z,3.33
2018-07-14T18:50:45.069Z,3.87
2018-07-14T18:53:13.351Z,4.03
2018-07-14T18:55:41.634Z,3.80
2018-07-14T18:58:09.962Z,3.87
2018-07-14T19:00:38.281Z,4.17
2018-07-14T19:03:06.576Z,4.20
2018-07-14T19:05:34.865Z,3.17
2018-07-14T19:08:03.165Z,3.63
2018-07-14T19:10:31.633Z,3.83
2018-07-14T19:13:00.022Z,3.40
2018-07-14T19:15:28.317Z,4.07
2018-07-14T19:17:56.615Z,3.80
2018-07-14T19:20:24.917Z,3.37
2018-07-14T19:22:53.219Z,3.07
2018-07-14T19:25:21.514Z,3.60
2018-07-14T19:27:49.812Z,3.80
2018-07-14T19:30:18.117Z,3.67
2018-07-14T19:32:46.340Z,3.27
2018-07-14T19:35:14.631Z,3.33
2018-07-14T19:37:42.901Z,3.70
2018-07-14T19:40:11.177Z,3.43
2018-07-14T19:42:39.422Z,3.60
2018-07-14T19:45:07.744Z,3.77
2018-07-14T19:47:36.073Z,3.33
2018-07-14T19:50:04.358Z,3.43
2018-07-14T19:52:32.806Z,3.90
2018-07-14T19:55:01.087Z,3.63
2018-07-14T19:57:29.325Z,4.00
2018-07-14T19:59:57.576Z,4.10
2018-07-14T20:02:25.842Z,3.77
2018-07-14T20:04:54.226Z,4.00
2018-07-14T20:07:22.622Z,4.20
2018-07-14T20:09:50.998Z,4.20
2018-07-14T20:12:19.239Z,4.50
2018-07-14T20:14:51.710Z,4.30
2018-07-14T20:17:20.294Z,4.40
2018-07-14T20:19:48.583Z,3.50
2018-07-14T20:22:16.976Z,4.07
2018-07-14T20:24:45.309Z,4.00
2018-07-14T20:27:13.544Z,4.17
2018-07-14T20:29:42.085Z,4.03
2018-07-14T20:32:10.320Z,4.43
2018-07-14T20:34:38.558Z,4.30
2018-07-14T20:37:06.957Z,4.17
2018-07-14T20:39:35.211Z,4.67
2018-07-14T20:42:03.487Z,4.80
2018-07-14T20:44:31.832Z,4.40
2018-07-14T20:47:00.079Z,4.63
2018-07-14T20:49:28.306Z,4.70
2018-07-14T20:51:56.631Z,4.57
2018-07-14T20:54:24.912Z,4.30
2018-07-14T20:56:53.187Z,4.37
2018-07-14T20:59:21.444Z,4.80
2018-07-14T21:01:49.694Z,5.70
2018-07-14T21:04:17.967Z,5.00
2018-07-14T21:06:46.231Z,5.13
2018-07-14T21:09:14.468Z,4.73
2018-07-14T21:11:42.705Z,4.60
2018-07-14T21:14:10.983Z,4.93
2018-07-14T21:16:39.229Z,5.37
2018-07-14T21:19:07.608Z,4.73
2018-07-14T21:21:35.886Z,4.50
2018-07-14T21:24:04.074Z,4.80
2018-07-14T21:26:32.428Z,5.07
2018-07-14T21:29:00.654Z,4.67
2018-07-14T21:31:28.910Z,5.37
2018-07-14T21:33:57.148Z,5.50
2018-07-14T21:36:25.972Z,4.83
2018-07-14T21:38:54.913Z,5.07
2018-07-14T21:41:23.665Z,5.00
2018-07-14T21:43:52.065Z,5.03
2018-07-14T21:46:20.230Z,4.57
2018-07-14T21:48:48.555Z,5.00
2018-07-14T21:51:17.289Z,5.30
2018-07-14T21:53:45.479Z,5.07
2018-07-14T21:56:13.652Z,4.90
2018-07-14T21:58:41.914Z,5.40
2018-07-14T22:01:15.518Z,5.50
2018-07-14T22:03:43.801Z,4.77
2018-07-14T22:06:12.165Z,5.20
2018-07-14T22:08:40.422Z,4.60
2018-07-14T22:11:08.749Z,5.17
2018-07-14T22:13:37.060Z,5.03
2018-07-14T22:16:05.330Z,5.43
2018-07-14T22:18:33.574Z,5.27
2018-07-14T22:21:01.752Z,5.13
2018-07-14T22:23:29.932Z,4.93
2018-07-14T22:25:58.086Z,4.43
2018-07-14T22:28:26.200Z,5.33
2018-07-14T22:30:54.279Z,5.10
2018-07-14T22:33:22.537Z,6.03
2018-07-14T22:35:50.609Z,5.50
2018-07-14T22:38:18.732Z,4.67
2018-07-14T22:40:46.803Z,5.33
2018-07-14T22:43:14.880Z,5.63
2018-07-14T22:45:42.951Z,4.60
2018-07-14T22:48:11.020Z,5.10
2018-07-14T22:50:39.911Z,5.50
2018-07-14T22:53:08.005Z,4.90
2018-07-14T22:55:36.116Z,5.43
2018-07-14T22:58:04.211Z,5.17
2018-07-14T23:00:32.303Z,5.93
2018-07-14T23:03:00.385Z,5.57
2018-07-14T23:05:28.456Z,5.67
2018-07-14T23:07:56.536Z,5.13
2018-07-14T23:10:24.655Z,5.10
2018-07-14T23:12:52.845Z,5.40
2018-07-14T23:15:21.051Z,5.13
2018-07-14T23:17:49.232Z,5.00
2018-07-14T23:20:17.449Z,5.33
2018-07-14T23:22:45.618Z,5.63
2018-07-14T23:25:13.807Z,5.30
2018-07-14T23:27:42.040Z,5.77
2018-07-14T23:30:10.352Z,5.60
2018-07-14T23:32:38.548Z,5.30
2018-07-14T23:35:06.798Z,5.40
2018-07-14T23:37:35.108Z,5.17
2018-07-14T23:40:03.357Z,6.00
2018-07-14T23:42:31.545Z,5.60
2018-07-14T23:44:59.732Z,4.97
2018-07-14T23:47:27.975Z,5.90
2018-07-14T23:49:56.162Z,5.40
2018-07-14T23:52:24.339Z,4.97
2018-07-14T23:54:52.528Z,5.57
2018-07-14T23:57:20.740Z,4.87
2018-07-14T23:59:48.917Z,5.50
